Time,TemperatureF,DewpointF,PressureIn,WindDirection,WindDirectionDegrees,WindSpeedMPH,WindSpeedGustMPH,Humidity,HourlyPrecipIn,Conditions,Clouds,dailyrainin,SoftwareType,DateUTC
2013-03-29 00:03:00,30.0,26.0,-100.00,SSW,200,0.0,1.0,84,0.00,,,-99.99,,2013-03-29 04:03:00,
2013-03-29 00:13:00,30.0,26.0,-100.00,SSW,195,0.0,2.0,84,0.00,,,-99.99,,2013-03-29 04:13:00,
2013-03-29 00:22:00,30.0,26.0,-100.00,SSW,210,0.0,1.0,84,0.00,,,-99.99,,2013-03-29 04:22:00,
2013-03-29 00:33:00,29.0,26.0,-100.00,SSW,205,0.0,1.0,86,0.00,,,-99.99,,2013-03-29 04:33:00,
2013-03-29 00:43:00,30.0,26.0,-100.00,SSW,200,0.0,1.0,85,0.00,,,-99.99,,2013-03-29 04:43:00,
2013-03-29 00:52:00,29.0,26.0,-100.00,SSW,195,0.0,1.0,85,0.00,,,-99.99,,2013-03-29 04:52:00,
2013-03-29 01:03:00,29.0,26.0,-100.00,SSW,200,0.0,1.0,87,0.00,,,-99.99,,2013-03-29 05:03:00,
2013-03-29 01:12:00,29.0,26.0,-100.00,SSW,195,0.0,0.0,87,0.00,,,-99.99,,2013-03-29 05:12:00,
2013-03-29 01:23:00,29.0,26.0,-100.00,South,190,0.0,0.0,86,0.00,,,-99.99,,2013-03-29 05:23:00,
2013-03-29 01:33:00,28.0,25.0,-100.00,SSW,195,0.0,0.0,86,0.00,,,-99.99,,2013-03-29 05:33:00,
2013-03-29 01:43:00,28.0,25.0,-100.00,South,180,0.0,1.0,87,0.00,,,-99.99,,2013-03-29 05:43:00,
2013-03-29 01:52:00,28.0,25.0,-100.00,SSW,210,0.0,1.0,86,0.00,,,-99.99,,2013-03-29 05:52:00,
2013-03-29 02:02:00,28.0,25.0,-100.00,SW,220,0.0,0.0,87,0.00,,,-99.99,,2013-03-29 06:02:00,
2013-03-29 02:12:00,28.0,25.0,-100.00,South,190,0.0,0.0,87,0.00,,,-99.99,,2013-03-29 06:12:00,
2013-03-29 02:23:00,28.0,25.0,-100.00,SSW,210,0.0,0.0,88,0.00,,,-99.99,,2013-03-29 06:23:00,
2013-03-29 02:32:00,27.0,25.0,-100.00,SW,215,0.0,0.0,89,0.00,,,-99.99,,2013-03-29 06:32:00,
2013-03-29 02:42:00,27.0,25.0,-100.00,SW,215,0.0,1.0,90,0.00,,,-99.99,,2013-03-29 06:42:00,
2013-03-29 02:52:00,27.0,25.0,-100.00,SSW,210,0.0,0.0,90,0.00,,,-99.99,,2013-03-29 06:52:00,
2013-03-29 03:03:00,27.0,25.0,-100.00,South,190,0.0,0.0,92,0.00,,,-99.99,,2013-03-29 07:03:00,
2013-03-29 03:12:00,27.0,25.0,-100.00,South,180,0.0,1.0,91,0.00,,,-99.99,,2013-03-29 07:12:00,
2013-03-29 03:22:00,26.0,24.0,-100.00,SSW,195,0.0,1.0,91,0.00,,,-99.99,,2013-03-29 07:22:00,
2013-03-29 03:32:00,26.0,25.0,-100.00,South,190,0.0,2.0,92,0.00,,,-99.99,,2013-03-29 07:32:00,
2013-03-29 03:42:00,26.0,24.0,-100.00,SSW,205,0.0,1.0,91,0.00,,,-99.99,,2013-03-29 07:42:00,
2013-03-29 03:52:00,26.0,24.0,-100.00,SW,215,0.0,0.0,93,0.00,,,-99.99,,2013-03-29 07:52:00,
2013-03-29 04:02:00,26.0,25.0,-100.00,SSW,200,0.0,1.0,96,0.00,,,-99.99,,2013-03-29 08:02:00,
2013-03-29 04:13:00,26.0,-99.9,-100.00,South,180,0.0,0.0,-999,0.00,,,-99.99,,2013-03-29 08:13:00,
2013-03-29 04:22:00,26.0,-99.9,-100.00,SSW,200,0.0,0.0,-999,0.00,,,-99.99,,2013-03-29 08:22:00,
2013-03-29 04:32:00,26.0,-99.9,-100.00,SSW,205,0.0,1.0,-999,0.00,,,-99.99,,2013-03-29 08:32:00,
2013-03-29 04:42:00,25.0,-99.9,-100.00,SSW,195,0.0,0.0,-999,0.00,,,-99.99,,2013-03-29 08:42:00,
2013-03-29 04:53:00,26.0,-99.9,-100.00,SSW,210,0.0,0.0,-999,0.00,,,-99.99,,2013-03-29 08:53:00,
2013-03-29 05:02:00,25.0,-99.9,-100.00,SSW,200,0.0,0.0,-999,0.00,,,-99.99,,2013-03-29 09:02:00,
2013-03-29 05:13:00,25.0,-99.9,-100.00,SSW,210,0.0,2.0,-999,0.00,,,-99.99,,2013-03-29 09:13:00,
2013-03-29 05:22:00,25.0,-99.9,-100.00,SSW,210,0.0,0.0,-999,0.00,,,-99.99,,2013-03-29 09:22:00,
2013-03-29 05:33:00,25.0,-99.9,-100.00,SSW,210,0.0,0.0,-999,0.00,,,-99.99,,2013-03-29 09:33:00,
2013-03-29 05:43:00,25.0,-99.9,-100.00,SSW,210,0.0,0.0,-999,0.00,,,-99.99,,2013-03-29 09:43:00,
2013-03-29 05:53:00,25.0,-99.9,-100.00,SW,215,0.0,1.0,-999,0.00,,,-99.99,,2013-03-29 09:53:00,
2013-03-29 06:03:00,25.0,-99.9,-100.00,SSW,205,0.0,1.0,-999,0.00,,,-99.99,,2013-03-29 10:03:00,
2013-03-29 06:12:00,25.0,-99.9,-100.00,SW,220,0.0,0.0,-999,0.00,,,-99.99,,2013-03-29 10:12:00,
2013-03-29 06:23:00,25.0,-99.9,-100.00,SSW,210,0.0,2.0,-999,0.00,,,-99.99,,2013-03-29 10:23:00,
2013-03-29 06:33:00,24.0,-99.9,-100.00,South,190,0.0,1.0,-999,0.00,,,-99.99,,2013-03-29 10:33:00,
2013-03-29 06:43:00,24.0,-99.9,-100.00,SW,220,0.0,1.0,-999,0.00,,,-99.99,,2013-03-29 10:43:00,
2013-03-29 06:54:00,24.0,-99.9,-100.00,SW,220,0.0,1.0,-999,0.00,,,-99.99,,2013-03-29 10:54:00,
2013-03-29 07:04:00,24.0,-99.9,-100.00,SW,215,0.0,1.0,-999,0.00,,,-99.99,,2013-03-29 11:04:00,
2013-03-29 07:13:00,24.0,-99.9,-100.00,SW,220,0.0,1.0,-999,0.00,,,-99.99,,2013-03-29 11:13:00,
2013-03-29 07:24:00,24.0,-99.9,-100.00,SSW,195,0.0,1.0,-999,0.00,,,-99.99,,2013-03-29 11:24:00,
2013-03-29 07:33:00,24.0,-99.9,-100.00,SSW,210,0.0,2.0,-999,0.00,,,-99.99,,2013-03-29 11:33:00,
2013-03-29 07:43:00,24.0,-99.9,-100.00,SW,215,0.0,4.0,-999,0.00,,,-99.99,,2013-03-29 11:43:00,
2013-03-29 07:53:00,24.0,-99.9,-100.00,SSW,205,0.0,1.0,-999,0.00,,,-99.99,,2013-03-29 11:53:00,
2013-03-29 08:03:00,24.0,-99.9,-100.00,SW,215,0.0,2.0,-999,0.00,,,-99.99,,2013-03-29 12:03:00,
2013-03-29 08:13:00,24.0,-99.9,-100.00,SW,225,0.0,1.0,-999,0.00,,,-99.99,,2013-03-29 12:13:00,
2013-03-29 08:22:00,25.0,-99.9,-100.00,SSW,210,0.0,0.0,-999,0.00,,,-99.99,,2013-03-29 12:22:00,
2013-03-29 08:33:00,26.0,-99.9,-100.00,South,190,0.0,2.0,-999,0.00,,,-99.99,,2013-03-29 12:33:00,
2013-03-29 08:42:00,26.0,26.0,-100.00,SSW,200,0.0,2.0,96,0.00,,,-99.99,,2013-03-29 12:42:00,
2013-03-29 08:52:00,28.0,27.0,-100.00,SW,235,0.0,4.0,93,0.55,,,-99.99,,2013-03-29 12:52:00,
2013-03-29 09:03:00,29.0,26.0,-100.00,South,180,0.0,1.0,88,1.69,,,-99.99,,2013-03-29 13:03:00,
2013-03-29 09:22:00,30.0,27.0,-100.00,SSW,210,0.0,2.0,85,0.00,,,-99.99,,2013-03-29 13:22:00,
2013-03-29 09:33:00,32.0,27.0,-100.00,South,190,0.0,1.0,83,0.00,,,-99.99,,2013-03-29 13:33:00,
2013-03-29 09:42:00,34.0,28.0,-100.00,SSW,210,0.0,1.0,78,0.00,,,-99.99,,2013-03-29 13:42:00,
2013-03-29 09:52:00,36.0,29.0,-100.00,East,80,0.0,2.0,75,9.61,,,-99.99,,2013-03-29 13:52:00,
2013-03-29 10:03:00,38.0,29.0,-100.00,NNE,30,0.0,2.0,70,2.24,,,-99.99,,2013-03-29 14:03:00,
2013-03-29 10:12:00,40.0,29.0,-100.00,NNE,15,0.0,2.0,66,2.24,,,-99.99,,2013-03-29 14:12:00,
2013-03-29 10:22:00,41.0,30.0,-100.00,NE,40,0.0,4.0,65,0.00,,,-99.99,,2013-03-29 14:22:00,
2013-03-29 10:33:00,42.0,29.0,-100.00,WSW,245,1.0,4.0,59,0.00,,,-99.99,,2013-03-29 14:33:00,
2013-03-29 10:42:00,43.0,28.0,-100.00,SW,230,2.0,6.0,57,0.55,,,-99.99,,2013-03-29 14:42:00,
2013-03-29 10:52:00,45.0,29.0,-100.00,North,0,0.0,4.0,53,6.77,,,-99.99,,2013-03-29 14:52:00,
2013-03-29 11:02:00,46.0,27.0,-100.00,West,270,1.0,4.0,46,3.94,,,-99.99,,2013-03-29 15:02:00,
2013-03-29 11:12:00,47.0,27.0,-100.00,WNW,300,1.0,6.0,46,6.77,,,-99.99,,2013-03-29 15:12:00,
2013-03-29 11:22:00,46.0,27.0,-100.00,WSW,245,4.0,7.0,46,1.10,,,-99.99,,2013-03-29 15:22:00,
2013-03-29 11:33:00,47.0,27.0,-100.00,SW,235,6.0,9.0,45,7.91,,,-99.99,,2013-03-29 15:33:00,
2013-03-29 11:43:00,48.0,29.0,-100.00,SW,220,6.0,12.0,46,0.00,,,-99.99,,2013-03-29 15:43:00,
2013-03-29 11:52:00,47.0,25.0,-100.00,SW,215,9.0,14.0,42,0.00,,,-99.99,,2013-03-29 15:52:00,
2013-03-29 12:03:00,49.0,29.0,-100.00,West,275,3.0,12.0,46,0.00,,,-99.99,,2013-03-29 16:03:00,
2013-03-29 12:13:00,47.0,24.0,-100.00,SW,220,9.0,13.0,40,0.00,,,-99.99,,2013-03-29 16:13:00,
2013-03-29 12:23:00,49.0,26.0,-100.00,WSW,240,7.0,14.0,40,1.69,,,-99.99,,2013-03-29 16:23:00,
2013-03-29 12:33:00,50.0,27.0,-100.00,WNW,295,6.0,16.0,39,1.10,,,-99.99,,2013-03-29 16:33:00,
2013-03-29 12:42:00,49.0,27.0,-100.00,WNW,285,1.0,12.0,42,0.00,,,-99.99,,2013-03-29 16:42:00,
2013-03-29 12:52:00,51.0,28.0,-100.00,WSW,250,6.0,12.0,41,6.22,,,-99.99,,2013-03-29 16:52:00,
2013-03-29 13:03:00,49.0,27.0,-100.00,South,190,3.0,16.0,41,0.00,,,-99.99,,2013-03-29 17:03:00,
2013-03-29 13:12:00,49.0,25.0,-100.00,SW,235,2.0,14.0,38,2.24,,,-99.99,,2013-03-29 17:12:00,
2013-03-29 13:22:00,51.0,25.0,-100.00,West,280,1.0,13.0,35,1.69,,,-99.99,,2013-03-29 17:22:00,
2013-03-29 13:33:00,51.0,25.0,-100.00,West,275,7.0,12.0,35,0.55,,,-99.99,,2013-03-29 17:33:00,
2013-03-29 13:43:00,51.0,24.0,-100.00,West,265,7.0,14.0,34,3.94,,,-99.99,,2013-03-29 17:43:00,
2013-03-29 13:52:00,51.0,24.0,-100.00,WSW,255,11.0,16.0,33,2.83,,,-99.99,,2013-03-29 17:52:00,
2013-03-29 14:02:00,50.0,26.0,-100.00,West,275,1.0,13.0,39,0.00,,,-99.99,,2013-03-29 18:02:00,
2013-03-29 14:12:00,52.0,24.0,-100.00,WNW,300,6.0,14.0,33,0.00,,,-99.99,,2013-03-29 18:12:00,
2013-03-29 14:23:00,53.0,24.0,-100.00,NW,315,5.0,10.0,32,0.00,,,-99.99,,2013-03-29 18:23:00,
2013-03-29 14:32:00,53.0,25.0,-100.00,North,355,1.0,9.0,33,0.55,,,-99.99,,2013-03-29 18:32:00,
2013-03-29 14:42:00,52.0,24.0,-100.00,North,0,2.0,12.0,33,0.00,,,-99.99,,2013-03-29 18:42:00,
2013-03-29 14:52:00,54.0,26.0,-100.00,NW,305,2.0,11.0,34,5.08,,,-99.99,,2013-03-29 18:52:00,
2013-03-29 15:03:00,53.0,25.0,-100.00,West,260,0.0,12.0,33,0.55,,,-99.99,,2013-03-29 19:03:00,
2013-03-29 15:12:00,54.0,25.0,-100.00,WNW,295,8.0,19.0,32,6.22,,,-99.99,,2013-03-29 19:12:00,
2013-03-29 15:23:00,54.0,27.0,-100.00,WNW,285,2.0,14.0,34,4.53,,,-99.99,,2013-03-29 19:23:00,
2013-03-29 15:33:00,54.0,26.0,-100.00,WNW,290,6.0,12.0,33,5.67,,,-99.99,,2013-03-29 19:33:00,
2013-03-29 15:42:00,54.0,27.0,-100.00,NW,310,6.0,11.0,34,3.94,,,-99.99,,2013-03-29 19:42:00,
2013-03-29 15:52:00,55.0,27.0,-100.00,WNW,300,5.0,12.0,34,0.55,,,-99.99,,2013-03-29 19:52:00,
2013-03-29 16:03:00,56.0,27.0,-100.00,NW,305,3.0,13.0,32,0.55,,,-99.99,,2013-03-29 20:03:00,
2013-03-29 16:12:00,53.0,26.0,-100.00,NW,315,9.0,15.0,34,2.83,,,-99.99,,2013-03-29 20:12:00,
2013-03-29 16:22:00,55.0,26.0,-100.00,West,270,6.0,11.0,31,0.00,,,-99.99,,2013-03-29 20:22:00,
2013-03-29 16:33:00,55.0,26.0,-100.00,West,275,9.0,16.0,33,1.10,,,-99.99,,2013-03-29 20:33:00,
2013-03-29 16:42:00,55.0,27.0,-100.00,WNW,300,5.0,14.0,34,0.00,,,-99.99,,2013-03-29 20:42:00,
2013-03-29 16:52:00,54.0,27.0,-100.00,WNW,285,7.0,12.0,34,2.24,,,-99.99,,2013-03-29 20:52:00,
2013-03-29 17:02:00,55.0,26.0,-100.00,WNW,285,5.0,11.0,32,0.00,,,-99.99,,2013-03-29 21:02:00,
2013-03-29 17:12:00,53.0,27.0,-100.00,NW,305,8.0,11.0,36,0.00,,,-99.99,,2013-03-29 21:12:00,
2013-03-29 17:22:00,53.0,27.0,-100.00,WNW,290,2.0,9.0,35,0.00,,,-99.99,,2013-03-29 21:22:00,
2013-03-29 17:33:00,54.0,26.0,-100.00,WNW,295,7.0,12.0,34,0.00,,,-99.99,,2013-03-29 21:33:00,
2013-03-29 17:42:00,53.0,27.0,-100.00,West,270,2.0,12.0,36,0.00,,,-99.99,,2013-03-29 21:42:00,
2013-03-29 17:53:00,53.0,28.0,-100.00,West,265,2.0,9.0,37,0.00,,,-99.99,,2013-03-29 21:53:00,
2013-03-29 18:03:00,53.0,28.0,-100.00,West,280,0.0,6.0,37,0.00,,,-99.99,,2013-03-29 22:03:00,
2013-03-29 18:12:00,52.0,27.0,-100.00,WNW,295,3.0,11.0,37,0.00,,,-99.99,,2013-03-29 22:12:00,
2013-03-29 18:23:00,52.0,27.0,-100.00,WNW,300,6.0,12.0,38,0.00,,,-99.99,,2013-03-29 22:23:00,
2013-03-29 18:33:00,52.0,27.0,-100.00,NW,305,6.0,11.0,37,0.00,,,-99.99,,2013-03-29 22:33:00,
2013-03-29 18:42:00,52.0,27.0,-100.00,WNW,290,4.0,8.0,38,0.00,,,-99.99,,2013-03-29 22:42:00,
2013-03-29 18:53:00,52.0,28.0,-100.00,WNW,300,4.0,6.0,39,0.00,,,-99.99,,2013-03-29 22:53:00,
2013-03-29 19:03:00,51.0,28.0,-100.00,WNW,300,2.0,9.0,41,0.00,,,-99.99,,2013-03-29 23:03:00,
2013-03-29 19:12:00,51.0,28.0,-100.00,WNW,300,4.0,9.0,41,0.00,,,-99.99,,2013-03-29 23:12:00,
2013-03-29 19:22:00,51.0,29.0,-100.00,NW,305,3.0,8.0,41,0.00,,,-99.99,,2013-03-29 23:22:00,
2013-03-29 19:32:00,51.0,28.0,-100.00,WNW,295,2.0,4.0,41,0.00,,,-99.99,,2013-03-29 23:32:00,
2013-03-29 19:42:00,50.0,29.0,-100.00,WNW,295,1.0,3.0,43,0.00,,,-99.99,,2013-03-29 23:42:00,
2013-03-29 19:52:00,50.0,28.0,-100.00,North,0,0.0,3.0,42,0.00,,,-99.99,,2013-03-29 23:52:00,
2013-03-29 20:03:00,50.0,29.0,-100.00,WNW,300,1.0,3.0,43,0.00,,,-99.99,,2013-03-30 00:03:00,
2013-03-29 20:12:00,49.0,29.0,-100.00,NW,305,0.0,1.0,44,0.00,,,-99.99,,2013-03-30 00:12:00,
2013-03-29 20:22:00,49.0,29.0,-100.00,SSE,165,0.0,3.0,46,0.00,,,-99.99,,2013-03-30 00:22:00,
2013-03-29 20:32:00,48.0,29.0,-100.00,WSW,245,0.0,3.0,47,0.00,,,-99.99,,2013-03-30 00:32:00,
2013-03-29 20:42:00,46.0,31.0,-100.00,SSW,195,0.0,3.0,54,0.00,,,-99.99,,2013-03-30 00:42:00,
2013-03-29 20:52:00,46.0,30.0,-100.00,South,185,0.0,2.0,53,0.00,,,-99.99,,2013-03-30 00:52:00,
2013-03-29 21:03:00,45.0,31.0,-100.00,South,185,0.0,1.0,58,0.00,,,-99.99,,2013-03-30 01:03:00,
2013-03-29 21:12:00,44.0,32.0,-100.00,NNW,340,0.0,1.0,62,0.00,,,-99.99,,2013-03-30 01:12:00,
2013-03-29 21:22:00,42.0,32.0,-100.00,SSW,205,0.0,2.0,68,0.00,,,-99.99,,2013-03-30 01:22:00,
2013-03-29 21:33:00,42.0,32.0,-100.00,South,190,0.0,1.0,68,0.00,,,-99.99,,2013-03-30 01:33:00,
2013-03-29 21:43:00,41.0,32.0,-100.00,WSW,240,0.0,1.0,70,0.00,,,-99.99,,2013-03-30 01:43:00,
2013-03-29 21:52:00,41.0,32.0,-100.00,SW,215,1.0,3.0,69,0.00,,,-99.99,,2013-03-30 01:52:00,
2013-03-29 22:03:00,40.0,32.0,-100.00,SSW,200,0.0,2.0,72,0.00,,,-99.99,,2013-03-30 02:03:00,
2013-03-29 22:12:00,40.0,32.0,-100.00,South,185,0.0,0.0,72,0.00,,,-99.99,,2013-03-30 02:12:00,
2013-03-29 22:22:00,40.0,32.0,-100.00,SW,220,0.0,2.0,71,0.00,,,-99.99,,2013-03-30 02:22:00,
2013-03-29 22:33:00,39.0,32.0,-100.00,SSW,205,0.0,2.0,73,0.00,,,-99.99,,2013-03-30 02:33:00,
2013-03-29 22:42:00,39.0,31.0,-100.00,SW,220,0.0,2.0,74,0.00,,,-99.99,,2013-03-30 02:42:00,
2013-03-29 22:52:00,38.0,31.0,-100.00,SSW,200,0.0,0.0,75,0.00,,,-99.99,,2013-03-30 02:52:00,
2013-03-29 23:03:00,38.0,31.0,-100.00,SSW,205,0.0,4.0,78,0.00,,,-99.99,,2013-03-30 03:03:00,
2013-03-29 23:12:00,37.0,31.0,-100.00,SSW,205,0.0,1.0,79,0.00,,,-99.99,,2013-03-30 03:12:00,
2013-03-29 23:22:00,37.0,31.0,-100.00,South,185,0.0,2.0,80,0.00,,,-99.99,,2013-03-30 03:22:00,
2013-03-29 23:33:00,36.0,30.0,-100.00,SW,220,0.0,0.0,79,0.00,,,-99.99,,2013-03-30 03:33:00,
2013-03-29 23:43:00,36.0,31.0,-100.00,WSW,240,0.0,1.0,82,0.00,,,-99.99,,2013-03-30 03:43:00,
2013-03-29 23:53:00,35.0,31.0,-100.00,SW,235,0.0,1.0,85,0.00,,,-99.99,,2013-03-30 03:53:00,